createdAt,value
2023-02-11T00:01:14.867Z,28.02
2023-02-11T00:03:41.884Z,27.30
2023-02-11T00:06:11.742Z,28.05
2023-02-11T00:08:40.105Z,27.80
2023-02-11T00:11:07.672Z,26.83
2023-02-11T00:13:34.717Z,25.20
2023-02-11T00:16:08.231Z,27.15
2023-02-11T00:18:36.265Z,25.90
2023-02-11T00:21:08.960Z,26.25
2023-02-11T00:23:36.705Z,25.63
2023-02-11T00:26:04.770Z,27.30
2023-02-11T00:28:31.778Z,26.45
2023-02-11T00:30:58.968Z,27.48
2023-02-11T00:33:26.047Z,25.98
2023-02-11T00:35:53.282Z,26.05
2023-02-11T00:38:20.424Z,27.80
2023-02-11T00:40:47.306Z,27.48
2023-02-11T00:43:14.245Z,26.15
2023-02-11T00:45:41.254Z,26.77
2023-02-11T00:48:08.077Z,26.30
2023-02-11T00:50:35.483Z,26.88
2023-02-11T00:53:02.510Z,26.77
2023-02-11T00:55:29.587Z,25.50
2023-02-11T00:57:56.853Z,25.30
2023-02-11T01:00:23.687Z,25.92
2023-02-11T01:02:50.610Z,25.42
2023-02-11T01:05:17.753Z,24.13
2023-02-11T01:07:44.607Z,24.88
2023-02-11T01:10:12.540Z,24.38
2023-02-11T01:12:40.497Z,26.48
2023-02-11T01:15:09.702Z,26.30
2023-02-11T01:17:38.377Z,26.38
2023-02-11T01:20:08.356Z,26.88
2023-02-11T01:22:39.426Z,26.50
2023-02-11T01:25:08.690Z,25.70
2023-02-11T01:27:37.004Z,26.13
2023-02-11T01:30:07.893Z,25.85
2023-02-11T01:32:35.488Z,25.58
2023-02-11T01:35:02.798Z,26.45
2023-02-11T01:37:29.717Z,24.60
2023-02-11T01:39:57.457Z,23.80
2023-02-11T01:42:24.820Z,24.80
2023-02-11T01:44:54.318Z,25.38
2023-02-11T01:47:21.821Z,25.10
2023-02-11T01:49:57.544Z,24.70
2023-02-11T01:52:32.688Z,23.67
2023-02-11T01:55:25.946Z,23.17
2023-02-11T01:57:59.120Z,24.60
2023-02-11T02:00:37.623Z,25.52
2023-02-11T02:03:20.174Z,26.80
2023-02-11T02:06:06.199Z,25.58
2023-02-11T02:08:43.869Z,24.90
2023-02-11T02:11:10.935Z,24.75
2023-02-11T02:13:38.269Z,25.15
2023-02-11T02:16:15.768Z,24.23
2023-02-11T02:19:02.367Z,25.15
2023-02-11T02:22:14.092Z,23.42
2023-02-11T02:25:27.733Z,24.80
2023-02-11T02:28:48.420Z,22.45
2023-02-11T02:31:37.487Z,23.35
2023-02-11T02:34:16.073Z,25.60
2023-02-11T02:36:55.326Z,23.83
2023-02-11T02:39:29.241Z,26.20
2023-02-11T02:41:57.139Z,23.90
2023-02-11T02:44:24.751Z,25.13
2023-02-11T02:46:51.752Z,25.17
2023-02-11T02:49:18.829Z,23.48
2023-02-11T02:52:29.312Z,24.85
2023-02-11T02:55:22.472Z,26.88
2023-02-11T02:58:28.039Z,25.88
2023-02-11T03:01:28.619Z,25.23
2023-02-11T03:04:01.965Z,25.27
2023-02-11T03:06:53.503Z,25.70
2023-02-11T03:09:35.433Z,24.40
2023-02-11T03:12:04.316Z,22.88
2023-02-11T03:14:32.582Z,25.60
2023-02-11T03:17:02.521Z,24.52
2023-02-11T03:19:35.647Z,24.35
2023-02-11T03:22:11.768Z,23.45
2023-02-11T03:24:41.566Z,23.80
2023-02-11T03:27:27.184Z,23.00
2023-02-11T03:30:02.092Z,24.80
2023-02-11T03:32:37.229Z,24.50
2023-02-11T03:35:29.697Z,27.08
2023-02-11T03:37:57.996Z,26.50
2023-02-11T03:40:36.314Z,24.42
2023-02-11T03:43:17.293Z,23.48
2023-02-11T03:45:48.112Z,26.20
2023-02-11T03:48:24.051Z,26.48
2023-02-11T03:50:53.421Z,24.73
2023-02-11T03:53:22.750Z,25.45
2023-02-11T03:55:52.936Z,26.58
2023-02-11T03:58:20.347Z,26.35
2023-02-11T04:00:47.363Z,24.55
2023-02-11T04:03:14.443Z,26.67
2023-02-11T04:05:41.591Z,25.45
2023-02-11T04:08:09.321Z,25.63
2023-02-11T04:10:36.360Z,25.65
2023-02-11T04:13:03.389Z,27.33
2023-02-11T04:15:30.386Z,24.42
2023-02-11T04:17:57.219Z,26.45
2023-02-11T04:20:24.279Z,24.42
2023-02-11T04:22:51.104Z,27.05
2023-02-11T04:25:18.181Z,25.85
2023-02-11T04:27:45.012Z,24.13
2023-02-11T04:30:13.552Z,26.00
2023-02-11T04:32:40.603Z,25.33
2023-02-11T04:35:07.918Z,27.80
2023-02-11T04:37:35.586Z,26.88
2023-02-11T04:40:02.745Z,27.05
2023-02-11T04:42:29.771Z,27.73
2023-02-11T04:44:56.880Z,28.58
2023-02-11T04:47:23.832Z,26.73
2023-02-11T04:49:50.791Z,28.50
2023-02-11T04:52:17.675Z,29.40
2023-02-11T04:54:45.823Z,28.85
2023-02-11T04:57:12.694Z,29.83
2023-02-11T04:59:40.590Z,31.90
2023-02-11T05:02:07.631Z,31.58
2023-02-11T05:04:34.707Z,29.95
2023-02-11T05:07:01.960Z,28.75
2023-02-11T05:09:29.139Z,31.50
2023-02-11T05:11:56.208Z,32.08
2023-02-11T05:14:23.240Z,30.85
2023-02-11T05:16:50.301Z,30.92
2023-02-11T05:19:17.301Z,31.65
2023-02-11T05:22:00.271Z,31.27
2023-02-11T05:24:28.887Z,29.83
2023-02-11T05:26:56.040Z,31.50
2023-02-11T05:29:22.885Z,33.20
2023-02-11T05:31:49.715Z,31.55
2023-02-11T05:34:16.577Z,32.60
2023-02-11T05:36:43.692Z,33.58
2023-02-11T05:39:10.672Z,34.47
2023-02-11T05:41:38.331Z,32.70
2023-02-11T05:44:05.300Z,33.80
2023-02-11T05:46:32.330Z,32.63
2023-02-11T05:48:59.352Z,33.10
2023-02-11T05:51:26.327Z,32.65
2023-02-11T05:53:53.622Z,33.65
2023-02-11T05:56:20.640Z,32.60
2023-02-11T05:58:47.428Z,33.55
2023-02-11T06:01:14.323Z,31.08
2023-02-11T06:03:41.759Z,32.05
2023-02-11T06:06:12.612Z,34.28
2023-02-11T06:08:40.180Z,32.83
2023-02-11T06:11:07.415Z,34.13
2023-02-11T06:13:35.149Z,33.83
2023-02-11T06:16:03.187Z,32.53
2023-02-11T06:18:30.507Z,33.45
2023-02-11T06:20:57.395Z,34.05
2023-02-11T06:23:24.384Z,35.53
2023-02-11T06:25:52.714Z,37.40
2023-02-11T06:28:20.181Z,34.88
2023-02-11T06:30:47.389Z,34.67
2023-02-11T06:33:14.376Z,35.13
2023-02-11T06:35:41.379Z,34.03
2023-02-11T06:38:08.285Z,35.78
2023-02-11T06:40:35.254Z,36.35
2023-02-11T06:43:02.343Z,34.88
2023-02-11T06:45:29.404Z,34.47
2023-02-11T06:47:56.212Z,36.25
2023-02-11T06:50:23.353Z,35.13
2023-02-11T06:52:50.303Z,35.83
2023-02-11T06:55:17.614Z,36.13
2023-02-11T06:57:44.722Z,33.70
2023-02-11T07:00:12.728Z,34.03
2023-02-11T07:02:39.821Z,36.33
2023-02-11T07:05:08.091Z,36.80
2023-02-11T07:07:36.308Z,35.22
2023-02-11T07:10:04.508Z,36.65
2023-02-11T07:12:31.983Z,36.78
2023-02-11T07:14:58.888Z,36.13
2023-02-11T07:17:25.890Z,37.47
2023-02-11T07:19:52.794Z,32.50
2023-02-11T07:22:19.883Z,36.97
2023-02-11T07:24:46.904Z,34.90
2023-02-11T07:27:13.778Z,34.35
2023-02-11T07:29:42.708Z,34.75
2023-02-11T07:32:09.675Z,37.95
2023-02-11T07:34:36.857Z,38.67
2023-02-11T07:37:03.958Z,36.20
2023-02-11T07:39:30.990Z,35.53
2023-02-11T07:41:58.339Z,35.72
2023-02-11T07:44:25.956Z,37.45
2023-02-11T07:46:53.217Z,37.45
2023-02-11T07:49:20.178Z,35.60
2023-02-11T07:51:47.847Z,35.05
2023-02-11T07:54:14.925Z,35.15
2023-02-11T07:56:41.999Z,35.53
2023-02-11T07:59:09.000Z,40.20
2023-02-11T08:01:36.052Z,37.83
2023-02-11T08:04:03.883Z,38.65
2023-02-11T08:06:34.288Z,36.03
2023-02-11T08:09:07.739Z,34.72
2023-02-11T08:11:35.330Z,37.13
2023-02-11T08:14:02.590Z,35.33
2023-02-11T08:16:34.004Z,34.45
2023-02-11T08:19:05.063Z,34.00
2023-02-11T08:21:32.266Z,34.00
2023-02-11T08:23:59.390Z,33.67
2023-02-11T08:26:31.674Z,36.70
2023-02-11T08:28:59.307Z,34.35
2023-02-11T08:31:35.142Z,33.67
2023-02-11T08:34:02.758Z,32.85
2023-02-11T08:36:36.612Z,33.15
2023-02-11T08:39:18.685Z,35.47
2023-02-11T08:41:53.872Z,32.88
2023-02-11T08:44:22.470Z,35.55
2023-02-11T08:46:50.674Z,31.70
2023-02-11T08:49:18.142Z,30.60
2023-02-11T08:51:45.903Z,33.85
2023-02-11T08:54:14.187Z,34.35
2023-02-11T08:56:41.686Z,33.42
2023-02-11T08:59:12.799Z,32.13
2023-02-11T09:01:39.732Z,32.53
2023-02-11T09:04:06.628Z,32.45
2023-02-11T09:06:34.108Z,34.25
2023-02-11T09:09:01.656Z,31.98
2023-02-11T09:11:35.211Z,30.30
2023-02-11T09:14:04.020Z,30.70
2023-02-11T09:16:34.572Z,27.33
2023-02-11T09:19:05.033Z,29.45
2023-02-11T09:21:32.121Z,29.13
2023-02-11T09:23:59.260Z,31.35
2023-02-11T09:26:32.372Z,31.10
2023-02-11T09:29:00.199Z,27.75
2023-02-11T09:31:29.869Z,29.10
2023-02-11T09:34:03.551Z,28.13
2023-02-11T09:36:34.617Z,27.52
2023-02-11T09:39:04.491Z,27.00
2023-02-11T09:42:09.092Z,26.95
2023-02-11T09:44:38.537Z,25.88
2023-02-11T09:47:30.433Z,26.35
2023-02-11T09:50:07.455Z,28.30
2023-02-11T09:52:41.691Z,27.50
2023-02-11T09:55:28.389Z,27.55
2023-02-11T09:57:57.217Z,27.13
2023-02-11T10:00:54.197Z,26.95
2023-02-11T10:04:10.349Z,26.35
2023-02-11T10:07:11.070Z,25.98
2023-02-11T10:10:01.697Z,26.05
2023-02-11T10:13:16.771Z,25.92
2023-02-11T10:16:22.638Z,26.67
2023-02-11T10:19:23.835Z,23.80
2023-02-11T10:22:18.315Z,27.00
2023-02-11T10:24:58.178Z,25.08
2023-02-11T10:27:34.397Z,23.92
2023-02-11T10:30:24.251Z,24.73
2023-02-11T10:33:05.972Z,24.45
2023-02-11T10:35:33.559Z,23.10
2023-02-11T10:38:01.200Z,26.30
2023-02-11T10:40:31.268Z,25.45
2023-02-11T10:43:06.936Z,22.45
2023-02-11T10:45:48.821Z,23.33
2023-02-11T10:48:49.650Z,24.67
2023-02-11T10:51:25.824Z,25.45
2023-02-11T10:54:05.311Z,23.58
2023-02-11T10:56:38.272Z,25.27
2023-02-11T10:59:15.226Z,23.40
2023-02-11T11:01:48.461Z,24.10
2023-02-11T11:04:39.321Z,24.05
2023-02-11T11:07:24.416Z,23.73
2023-02-11T11:10:02.498Z,23.30
2023-02-11T11:12:48.794Z,22.08
2023-02-11T11:15:24.278Z,23.42
2023-02-11T11:18:21.885Z,21.25
2023-02-11T11:21:33.284Z,21.65
2023-02-11T11:24:04.018Z,21.95
2023-02-11T11:26:47.874Z,23.98
2023-02-11T11:29:46.207Z,22.63
2023-02-11T11:32:28.885Z,21.40
2023-02-11T11:35:17.712Z,22.65
2023-02-11T11:37:46.036Z,21.52
2023-02-11T11:40:15.963Z,20.55
2023-02-11T11:42:43.474Z,20.48
2023-02-11T11:45:16.443Z,21.67
2023-02-11T11:47:54.625Z,21.10
2023-02-11T11:50:55.918Z,19.35
2023-02-11T11:53:42.137Z,19.35
2023-02-11T11:56:23.371Z,19.00
2023-02-11T11:58:50.900Z,17.80
2023-02-11T12:01:51.858Z,19.65
2023-02-11T12:04:46.422Z,17.58
2023-02-11T12:08:03.923Z,17.63
2023-02-11T12:10:49.696Z,19.00
2023-02-11T12:14:08.065Z,17.58
2023-02-11T12:17:04.108Z,17.83
2023-02-11T12:19:50.577Z,16.73
2023-02-11T12:22:29.909Z,15.85
2023-02-11T12:25:08.885Z,16.52
2023-02-11T12:27:50.735Z,16.85
2023-02-11T12:30:17.647Z,14.95
2023-02-11T12:33:11.741Z,16.27
2023-02-11T12:36:16.006Z,14.43
2023-02-11T12:39:00.168Z,15.05
2023-02-11T12:42:17.076Z,15.48
2023-02-11T12:45:16.093Z,14.75
2023-02-11T12:48:04.200Z,13.63
2023-02-11T12:50:40.069Z,15.35
2023-02-11T12:53:32.242Z,13.70
2023-02-11T12:56:15.044Z,14.50
2023-02-11T12:58:45.736Z,12.48
2023-02-11T13:01:34.289Z,13.30
2023-02-11T13:04:18.062Z,13.68
2023-02-11T13:06:51.141Z,13.50
2023-02-11T13:09:46.552Z,12.52
2023-02-11T13:12:33.366Z,12.38
2023-02-11T13:15:07.557Z,12.25
2023-02-11T13:17:47.601Z,13.80
2023-02-11T13:20:59.962Z,12.77
2023-02-11T13:23:58.085Z,13.05
2023-02-11T13:26:40.632Z,12.20
2023-02-11T13:29:31.917Z,12.82
2023-02-11T13:32:14.499Z,12.70
2023-02-11T13:34:41.496Z,11.93
2023-02-11T13:37:37.733Z,12.80
2023-02-11T13:40:07.760Z,11.65
2023-02-11T13:42:50.099Z,11.60
2023-02-11T13:45:46.066Z,11.45
2023-02-11T13:48:26.598Z,11.57
2023-02-11T13:50:58.702Z,12.82
2023-02-11T13:53:26.302Z,13.27
2023-02-11T13:56:07.777Z,13.63
2023-02-11T13:58:47.084Z,12.27
2023-02-11T14:02:22.811Z,12.48
2023-02-11T14:05:42.791Z,12.90
2023-02-11T14:08:28.373Z,11.63
2023-02-11T14:10:58.008Z,13.02
2023-02-11T14:14:14.424Z,12.25
2023-02-11T14:16:59.750Z,11.65
2023-02-11T14:19:45.101Z,13.10
2023-02-11T14:22:44.092Z,12.32
2023-02-11T14:25:25.722Z,12.13
2023-02-11T14:28:22.001Z,11.98
2023-02-11T14:31:10.681Z,12.40
2023-02-11T14:33:40.616Z,10.55
2023-02-11T14:36:39.603Z,10.30
2023-02-11T14:39:24.220Z,9.98
2023-02-11T14:41:51.657Z,10.05
2023-02-11T14:44:31.519Z,9.98
2023-02-11T14:46:59.214Z,10.23
2023-02-11T14:49:34.320Z,10.27
2023-02-11T14:52:19.784Z,9.30
2023-02-11T14:54:50.312Z,10.05
2023-02-11T14:57:20.392Z,9.52
2023-02-11T15:00:14.203Z,9.40
2023-02-11T15:02:44.510Z,9.38
2023-02-11T15:05:27.462Z,9.32
2023-02-11T15:08:04.276Z,9.02
2023-02-11T15:10:42.007Z,8.13
2023-02-11T15:13:16.600Z,9.38
2023-02-11T15:15:46.303Z,8.70
2023-02-11T15:18:31.972Z,9.93
2023-02-11T15:20:59.088Z,9.65
2023-02-11T15:23:29.360Z,9.18
2023-02-11T15:25:56.518Z,10.43
2023-02-11T15:28:30.803Z,9.18
2023-02-11T15:31:16.779Z,10.68
2023-02-11T15:33:43.965Z,9.30
2023-02-11T15:36:13.892Z,9.35
2023-02-11T15:38:41.126Z,9.23
2023-02-11T15:41:37.970Z,9.07
2023-02-11T15:44:05.242Z,9.65
2023-02-11T15:46:39.312Z,9.07
2023-02-11T15:49:08.640Z,9.00
2023-02-11T15:51:37.786Z,8.63
2023-02-11T15:54:21.593Z,8.65
2023-02-11T15:56:59.151Z,8.80
2023-02-11T15:59:38.034Z,8.23
2023-02-11T16:02:18.630Z,8.90
2023-02-11T16:04:57.313Z,8.38
2023-02-11T16:07:50.308Z,7.70
2023-02-11T16:10:24.496Z,5.88
2023-02-11T16:12:53.390Z,6.15
2023-02-11T16:15:43.005Z,6.90
2023-02-11T16:18:36.716Z,5.65
2023-02-11T16:21:07.362Z,5.93
2023-02-11T16:23:44.303Z,5.53
2023-02-11T16:26:32.948Z,5.72
2023-02-11T16:29:25.982Z,5.65
2023-02-11T16:32:09.131Z,5.70
2023-02-11T16:34:36.849Z,5.43
2023-02-11T16:37:05.610Z,4.75
2023-02-11T16:39:33.061Z,5.70
2023-02-11T16:42:01.194Z,5.40
2023-02-11T16:44:29.225Z,6.82
2023-02-11T16:47:00.210Z,5.65
2023-02-11T16:49:32.272Z,5.43
2023-02-11T16:52:01.913Z,5.95
2023-02-11T16:54:30.199Z,5.90
2023-02-11T16:56:57.951Z,5.70
2023-02-11T16:59:25.119Z,5.70
2023-02-11T17:01:54.647Z,5.25
2023-02-11T17:04:28.757Z,5.20
2023-02-11T17:06:58.222Z,4.75
2023-02-11T17:09:30.607Z,5.13
2023-02-11T17:11:58.095Z,4.13
2023-02-11T17:14:25.110Z,4.30
2023-02-11T17:16:52.032Z,4.60
2023-02-11T17:19:21.560Z,4.72
2023-02-11T17:21:51.731Z,4.88
2023-02-11T17:24:20.178Z,4.55
2023-02-11T17:26:48.413Z,4.93
2023-02-11T17:29:19.216Z,5.45
2023-02-11T17:31:46.362Z,4.97
2023-02-11T17:34:13.344Z,4.68
2023-02-11T17:36:41.374Z,5.15
2023-02-11T17:39:08.529Z,4.63
2023-02-11T17:41:37.436Z,4.32
2023-02-11T17:44:05.168Z,4.60
2023-02-11T17:46:32.540Z,4.85
2023-02-11T17:49:00.233Z,4.55
2023-02-11T17:51:34.097Z,4.53
2023-02-11T17:54:07.403Z,4.00
2023-02-11T17:56:36.698Z,4.38
2023-02-11T17:59:05.534Z,4.80
2023-02-11T18:01:34.176Z,4.38
2023-02-11T18:04:01.883Z,4.32
2023-02-11T18:06:29.352Z,4.40
2023-02-11T18:08:59.851Z,4.50
2023-02-11T18:11:27.938Z,4.45
2023-02-11T18:13:55.419Z,5.18
2023-02-11T18:16:25.018Z,4.40
2023-02-11T18:18:53.309Z,4.53
2023-02-11T18:21:22.814Z,4.13
2023-02-11T18:23:50.472Z,4.40
2023-02-11T18:26:20.986Z,4.35
2023-02-11T18:28:48.090Z,3.85
2023-02-11T18:31:15.199Z,3.95
2023-02-11T18:33:42.769Z,4.20
2023-02-11T18:36:13.628Z,4.35
2023-02-11T18:38:42.142Z,3.67
2023-02-11T18:41:09.275Z,4.63
2023-02-11T18:43:37.063Z,3.67
2023-02-11T18:46:11.344Z,4.25
2023-02-11T18:48:39.851Z,4.53
2023-02-11T18:51:19.932Z,3.33
2023-02-11T18:53:47.211Z,4.55
2023-02-11T18:56:18.755Z,4.65
2023-02-11T18:58:46.051Z,4.50
2023-02-11T19:01:24.376Z,4.40
2023-02-11T19:03:52.326Z,4.32
2023-02-11T19:06:26.087Z,3.97
2023-02-11T19:09:00.705Z,4.40
2023-02-11T19:11:50.015Z,3.95
2023-02-11T19:14:34.138Z,4.43
2023-02-11T19:17:05.554Z,3.95
2023-02-11T19:19:35.717Z,3.97
2023-02-11T19:22:08.504Z,3.75
2023-02-11T19:24:37.896Z,3.92
2023-02-11T19:27:05.585Z,3.70
2023-02-11T19:29:34.941Z,4.05
2023-02-11T19:32:05.765Z,4.05
2023-02-11T19:34:33.789Z,4.65
2023-02-11T19:37:01.548Z,4.03
2023-02-11T19:39:28.707Z,3.83
2023-02-11T19:41:55.813Z,4.30
2023-02-11T19:44:23.029Z,4.15
2023-02-11T19:46:53.059Z,4.07
2023-02-11T19:49:23.502Z,3.80
2023-02-11T19:51:51.600Z,4.50
2023-02-11T19:54:20.291Z,4.85
2023-02-11T19:56:48.718Z,4.97
2023-02-11T19:59:16.620Z,4.00
2023-02-11T20:01:46.253Z,4.82
2023-02-11T20:04:13.732Z,4.82
2023-02-11T20:06:40.814Z,5.00
2023-02-11T20:09:13.181Z,4.85
2023-02-11T20:11:40.824Z,5.32
2023-02-11T20:14:08.617Z,5.78
2023-02-11T20:16:47.476Z,5.78
2023-02-11T20:19:22.010Z,4.97
2023-02-11T20:21:52.661Z,5.65
2023-02-11T20:24:21.497Z,5.03
2023-02-11T20:26:49.390Z,5.35
2023-02-11T20:29:18.369Z,5.30
2023-02-11T20:31:46.366Z,5.05
2023-02-11T20:34:13.793Z,4.78
2023-02-11T20:36:40.904Z,5.03
2023-02-11T20:39:10.067Z,5.47
2023-02-11T20:41:40.959Z,5.30
2023-02-11T20:44:11.161Z,5.05
2023-02-11T20:46:42.553Z,4.88
2023-02-11T20:49:12.913Z,5.00
2023-02-11T20:51:40.782Z,4.60
2023-02-11T20:54:14.180Z,5.15
2023-02-11T20:56:41.463Z,6.88
2023-02-11T20:59:08.894Z,5.13
2023-02-11T21:01:43.248Z,4.85
2023-02-11T21:04:21.197Z,4.72
2023-02-11T21:06:55.145Z,4.40
2023-02-11T21:09:26.540Z,4.55
2023-02-11T21:11:54.772Z,4.55
2023-02-11T21:14:24.652Z,4.47
2023-02-11T21:16:52.026Z,4.35
2023-02-11T21:19:19.392Z,5.18
2023-02-11T21:21:47.070Z,5.50
2023-02-11T21:24:14.582Z,5.05
2023-02-11T21:26:41.534Z,4.13
2023-02-11T21:29:09.075Z,4.18
2023-02-11T21:31:37.961Z,4.07
2023-02-11T21:34:06.109Z,5.22
2023-02-11T21:36:33.421Z,4.35
2023-02-11T21:39:01.685Z,4.00
2023-02-11T21:41:29.412Z,4.22
2023-02-11T21:43:57.123Z,4.03
2023-02-11T21:46:24.522Z,4.53
2023-02-11T21:48:52.449Z,4.65
2023-02-11T21:51:23.384Z,4.75
2023-02-11T21:53:59.823Z,4.82
2023-02-11T21:56:28.187Z,3.97
2023-02-11T21:58:57.670Z,4.38
2023-02-11T22:01:29.250Z,4.15
2023-02-11T22:03:58.340Z,4.50
2023-02-11T22:06:31.377Z,4.20
2023-02-11T22:08:59.051Z,4.10
2023-02-11T22:11:26.038Z,3.50
2023-02-11T22:13:55.418Z,3.92
2023-02-11T22:16:23.621Z,4.35
2023-02-11T22:18:51.350Z,4.85
2023-02-11T22:21:21.559Z,4.25
2023-02-11T22:23:49.341Z,4.32
2023-02-11T22:26:21.131Z,3.90
2023-02-11T22:28:49.450Z,4.30
2023-02-11T22:31:29.561Z,4.20
2023-02-11T22:33:57.543Z,4.65
2023-02-11T22:36:45.274Z,4.80
2023-02-11T22:39:15.212Z,4.35
2023-02-11T22:41:44.222Z,4.18
2023-02-11T22:44:11.966Z,4.43
2023-02-11T22:46:39.723Z,5.05
2023-02-11T22:49:07.321Z,4.35
2023-02-11T22:51:34.832Z,4.80
2023-02-11T22:54:05.622Z,4.18
2023-02-11T22:56:34.838Z,4.85
2023-02-11T22:59:05.676Z,4.18
2023-02-11T23:01:33.638Z,6.40
2023-02-11T23:04:03.922Z,4.90
2023-02-11T23:06:31.129Z,4.80
2023-02-11T23:08:58.674Z,4.85
2023-02-11T23:11:28.901Z,4.80
2023-02-11T23:13:56.605Z,4.45
2023-02-11T23:16:33.253Z,5.13
2023-02-11T23:19:04.141Z,4.80
2023-02-11T23:21:34.628Z,4.82
2023-02-11T23:24:07.227Z,4.53
2023-02-11T23:26:35.183Z,5.20
2023-02-11T23:29:02.668Z,4.75
2023-02-11T23:31:37.449Z,5.22
2023-02-11T23:34:05.940Z,4.93
2023-02-11T23:36:33.556Z,5.20
2023-02-11T23:39:00.654Z,5.30
2023-02-11T23:41:28.567Z,5.15
2023-02-11T23:43:57.944Z,4.80
2023-02-11T23:46:27.458Z,4.60
2023-02-11T23:48:54.479Z,5.47
2023-02-11T23:51:22.627Z,7.63
2023-02-11T23:53:50.269Z,6.20
2023-02-11T23:56:24.300Z,5.28
2023-02-11T23:58:54.315Z,5.00
